createdAt,value
2023-02-11T00:00:05.642Z,74.10
2023-02-11T00:00:15.038Z,74.10
2023-02-11T00:00:24.429Z,74.10
2023-02-11T00:00:33.838Z,74.10
2023-02-11T00:00:43.232Z,74.00
2023-02-11T00:00:52.809Z,74.00
2023-02-11T00:01:02.125Z,74.00
2023-02-11T00:01:11.637Z,74.00
2023-02-11T00:01:21.003Z,74.00
2023-02-11T00:01:39.811Z,74.00
2023-02-11T00:01:49.256Z,74.00
2023-02-11T00:01:58.664Z,74.00
2023-02-11T00:02:08.128Z,74.00
2023-02-11T00:02:17.499Z,74.10
2023-02-11T00:02:26.941Z,74.00
2023-02-11T00:02:36.359Z,74.10
2023-02-11T00:02:47.921Z,74.10
2023-02-11T00:02:55.043Z,74.10
2023-02-11T00:03:04.455Z,74.10
2023-02-11T00:03:13.877Z,74.10
2023-02-11T00:03:23.344Z,74.10
2023-02-11T00:03:32.773Z,74.10
2023-02-11T00:03:42.141Z,74.10
2023-02-11T00:03:51.641Z,74.10
2023-02-11T00:04:01.111Z,74.10
2023-02-11T00:04:19.846Z,74.10
2023-02-11T00:04:29.219Z,74.20
2023-02-11T00:04:38.601Z,74.10
2023-02-11T00:04:48.013Z,74.10
2023-02-11T00:04:57.384Z,74.10
2023-02-11T00:05:06.794Z,74.10
2023-02-11T00:05:16.197Z,74.00
2023-02-11T00:05:25.584Z,74.00
2023-02-11T00:05:35.006Z,74.10
2023-02-11T00:05:44.409Z,74.10
2023-02-11T00:05:53.813Z,74.00
2023-02-11T00:06:03.267Z,74.10
2023-02-11T00:06:12.647Z,74.10
2023-02-11T00:06:22.051Z,74.10
2023-02-11T00:06:31.434Z,74.10
2023-02-11T00:06:40.815Z,74.10
2023-02-11T00:06:59.583Z,74.20
2023-02-11T00:07:08.983Z,74.30
2023-02-11T00:07:18.395Z,74.30
2023-02-11T00:07:27.792Z,74.30
2023-02-11T00:07:37.189Z,74.40
2023-02-11T00:07:46.575Z,74.40
2023-02-11T00:07:55.972Z,74.40
2023-02-11T00:08:05.351Z,74.40
2023-02-11T00:08:14.734Z,74.50
2023-02-11T00:08:24.123Z,74.50
2023-02-11T00:08:33.499Z,74.50
2023-02-11T00:08:42.880Z,74.50
2023-02-11T00:08:52.275Z,74.60
2023-02-11T00:09:01.691Z,74.60
2023-02-11T00:09:11.061Z,74.60
2023-02-11T00:09:31.877Z,74.70
2023-02-11T00:09:39.298Z,74.70
2023-02-11T00:09:48.679Z,74.70
2023-02-11T00:09:58.065Z,74.70
2023-02-11T00:10:07.476Z,74.70
2023-02-11T00:10:16.882Z,74.70
2023-02-11T00:10:26.308Z,74.70
2023-02-11T00:10:35.699Z,74.70
2023-02-11T00:10:45.085Z,74.70
2023-02-11T00:10:54.478Z,74.70
2023-02-11T00:11:03.886Z,74.70
2023-02-11T00:11:13.267Z,74.70
2023-02-11T00:11:22.646Z,74.70
2023-02-11T00:11:32.029Z,74.70
2023-02-11T00:11:41.424Z,74.70
2023-02-11T00:11:50.792Z,74.70
2023-02-11T00:12:09.569Z,74.70
2023-02-11T00:12:18.986Z,74.70
2023-02-11T00:12:28.389Z,74.70
2023-02-11T00:12:37.786Z,74.70
2023-02-11T00:12:47.181Z,74.70
2023-02-11T00:12:56.591Z,74.70
2023-02-11T00:13:05.963Z,74.70
2023-02-11T00:13:15.352Z,74.70
2023-02-11T00:13:24.736Z,74.70
2023-02-11T00:13:34.118Z,74.70
2023-02-11T00:13:43.517Z,74.70
2023-02-11T00:13:52.902Z,74.80
2023-02-11T00:14:02.322Z,74.80
2023-02-11T00:14:11.692Z,74.80
2023-02-11T00:14:21.113Z,74.80
2023-02-11T00:14:30.544Z,74.80
2023-02-11T00:14:49.347Z,74.80
2023-02-11T00:14:58.730Z,74.80
2023-02-11T00:15:08.128Z,74.80
2023-02-11T00:15:17.535Z,74.80
2023-02-11T00:15:26.947Z,74.80
2023-02-11T00:15:36.328Z,74.80
2023-02-11T00:15:45.723Z,74.80
2023-02-11T00:15:55.133Z,74.80
2023-02-11T00:16:04.568Z,74.90
2023-02-11T00:16:14.008Z,74.90
2023-02-11T00:16:23.445Z,74.90
2023-02-11T00:16:32.914Z,74.90
2023-02-11T00:16:42.286Z,75.00
2023-02-11T00:16:51.658Z,75.00
2023-02-11T00:17:02.111Z,75.00
2023-02-11T00:17:11.442Z,75.10
2023-02-11T00:17:20.844Z,75.20
2023-02-11T00:17:39.663Z,75.20
2023-02-11T00:17:49.064Z,75.20
2023-02-11T00:17:58.453Z,75.30
2023-02-11T00:18:07.860Z,75.30
2023-02-11T00:18:17.270Z,75.40
2023-02-11T00:18:26.695Z,75.40
2023-02-11T00:18:36.073Z,75.40
2023-02-11T00:18:45.456Z,75.50
2023-02-11T00:18:54.866Z,75.50
2023-02-11T00:19:04.296Z,75.50
2023-02-11T00:19:13.653Z,75.50
2023-02-11T00:19:23.036Z,75.50
2023-02-11T00:19:32.428Z,75.60
2023-02-11T00:19:41.799Z,75.60
2023-02-11T00:19:51.206Z,75.60
2023-02-11T00:20:00.589Z,75.70
2023-02-11T00:20:19.372Z,75.80
2023-02-11T00:20:28.745Z,75.80
2023-02-11T00:20:38.154Z,75.90
2023-02-11T00:20:47.554Z,75.90
2023-02-11T00:20:56.963Z,76.00
2023-02-11T00:21:06.396Z,76.00
2023-02-11T00:21:15.809Z,76.10
2023-02-11T00:21:25.209Z,76.00
2023-02-11T00:21:34.590Z,76.10
2023-02-11T00:21:43.976Z,76.10
2023-02-11T00:21:53.380Z,76.20
2023-02-11T00:22:02.781Z,76.20
2023-02-11T00:22:12.178Z,76.20
2023-02-11T00:22:21.575Z,76.20
2023-02-11T00:22:30.960Z,76.20
2023-02-11T00:22:49.776Z,76.20
2023-02-11T00:22:59.189Z,76.20
2023-02-11T00:23:08.599Z,76.20
2023-02-11T00:23:18.034Z,76.30
2023-02-11T00:23:27.418Z,76.30
2023-02-11T00:23:36.814Z,76.30
2023-02-11T00:23:46.238Z,76.40
2023-02-11T00:23:55.597Z,76.40
2023-02-11T00:24:04.994Z,76.40
2023-02-11T00:24:14.394Z,76.40
2023-02-11T00:24:23.804Z,76.40
2023-02-11T00:24:33.194Z,76.50
2023-02-11T00:24:42.618Z,76.50
2023-02-11T00:24:51.986Z,76.50
2023-02-11T00:25:01.420Z,76.60
2023-02-11T00:25:10.791Z,76.60
2023-02-11T00:25:29.596Z,76.70
2023-02-11T00:25:39.006Z,76.70
2023-02-11T00:25:48.669Z,76.70
2023-02-11T00:25:57.834Z,76.70
2023-02-11T00:26:07.203Z,76.80
2023-02-11T00:26:16.613Z,76.80
2023-02-11T00:26:26.023Z,76.80
2023-02-11T00:26:35.430Z,76.80
2023-02-11T00:26:44.789Z,76.80
2023-02-11T00:26:54.195Z,76.80
2023-02-11T00:27:03.582Z,76.90
2023-02-11T00:27:12.968Z,76.90
2023-02-11T00:27:22.362Z,76.90
2023-02-11T00:27:31.749Z,76.90
2023-02-11T00:27:41.143Z,76.90
2023-02-11T00:27:50.532Z,77.00
2023-02-11T00:28:09.376Z,76.90
2023-02-11T00:28:18.794Z,77.00
2023-02-11T00:28:28.170Z,76.90
2023-02-11T00:28:37.523Z,77.00
2023-02-11T00:28:46.917Z,76.90
2023-02-11T00:28:56.314Z,77.00
2023-02-11T00:29:05.700Z,77.00
2023-02-11T00:29:15.092Z,77.00
2023-02-11T00:29:24.495Z,77.00
2023-02-11T00:29:33.919Z,77.00
2023-02-11T00:29:43.286Z,77.00
2023-02-11T00:29:52.681Z,77.00
2023-02-11T00:30:02.067Z,77.10
2023-02-11T00:30:11.479Z,77.00
2023-02-11T00:30:20.861Z,77.20
2023-02-11T00:30:39.844Z,77.30
2023-02-11T00:30:49.183Z,77.20
2023-02-11T00:30:58.569Z,77.30
2023-02-11T00:31:07.982Z,77.30
2023-02-11T00:31:17.439Z,77.40
2023-02-11T00:31:26.914Z,77.40
2023-02-11T00:31:36.379Z,77.50
2023-02-11T00:31:45.692Z,77.40
2023-02-11T00:31:55.014Z,77.50
2023-02-11T00:32:04.315Z,77.50
2023-02-11T00:32:13.636Z,77.50
2023-02-11T00:32:23.034Z,77.50
2023-02-11T00:32:32.421Z,77.50
2023-02-11T00:32:41.858Z,77.50
2023-02-11T00:32:51.293Z,77.50
2023-02-11T00:33:00.679Z,77.50
2023-02-11T00:33:19.453Z,77.50
2023-02-11T00:33:28.829Z,77.50
2023-02-11T00:33:38.241Z,77.50
2023-02-11T00:33:47.650Z,77.50
2023-02-11T00:33:57.034Z,77.50
2023-02-11T00:34:06.429Z,77.50
2023-02-11T00:34:15.802Z,77.50
2023-02-11T00:34:25.199Z,77.60
2023-02-11T00:34:34.577Z,77.60
2023-02-11T00:34:43.966Z,77.60
2023-02-11T00:34:53.377Z,77.60
2023-02-11T00:35:02.762Z,77.70
2023-02-11T00:35:12.152Z,77.70
2023-02-11T00:35:21.560Z,77.80
2023-02-11T00:35:30.953Z,77.80
2023-02-11T00:35:50.078Z,77.90
2023-02-11T00:35:59.165Z,77.90
2023-02-11T00:36:08.551Z,77.90
2023-02-11T00:36:17.949Z,77.90
2023-02-11T00:36:27.346Z,77.90
2023-02-11T00:36:36.759Z,78.00
2023-02-11T00:36:46.171Z,78.00
2023-02-11T00:36:55.546Z,77.90
2023-02-11T00:37:04.955Z,78.00
2023-02-11T00:37:14.355Z,77.90
2023-02-11T00:37:23.752Z,78.00
2023-02-11T00:37:33.201Z,78.00
2023-02-11T00:37:42.588Z,77.90
2023-02-11T00:37:52.004Z,78.00
2023-02-11T00:38:01.407Z,78.00
2023-02-11T00:38:10.804Z,77.90
2023-02-11T00:38:29.556Z,78.00
2023-02-11T00:38:38.956Z,78.00
2023-02-11T00:38:48.358Z,78.10
2023-02-11T00:38:57.736Z,78.00
2023-02-11T00:39:07.129Z,78.10
2023-02-11T00:39:16.521Z,78.10
2023-02-11T00:39:25.932Z,78.10
2023-02-11T00:39:35.328Z,78.10
2023-02-11T00:39:44.753Z,78.10
2023-02-11T00:39:54.135Z,78.10
2023-02-11T00:40:06.379Z,78.10
2023-02-11T00:40:12.943Z,78.10
2023-02-11T00:40:22.398Z,78.10
2023-02-11T00:40:31.817Z,78.20
2023-02-11T00:40:41.198Z,78.30
2023-02-11T00:40:50.610Z,78.20
2023-02-11T00:41:04.544Z,78.30
2023-02-11T00:41:13.924Z,78.30
2023-02-11T00:41:23.333Z,78.30
2023-02-11T00:41:32.735Z,78.40
2023-02-11T00:41:42.134Z,78.40
2023-02-11T00:41:51.529Z,78.50
2023-02-11T00:42:00.933Z,78.50
2023-02-11T00:42:19.734Z,78.60
2023-02-11T00:42:29.126Z,78.60
2023-02-11T00:42:38.510Z,78.70
2023-02-11T00:42:47.909Z,78.70
2023-02-11T00:42:57.317Z,78.90
2023-02-11T00:43:06.712Z,78.90
2023-02-11T00:43:16.103Z,78.90
2023-02-11T00:43:25.517Z,79.00
2023-02-11T00:43:34.904Z,79.00
2023-02-11T00:43:44.309Z,79.10
2023-02-11T00:43:53.764Z,79.10
2023-02-11T00:44:03.086Z,79.20
2023-02-11T00:44:12.491Z,79.20
2023-02-11T00:44:21.882Z,79.30
2023-02-11T00:44:31.317Z,79.30
2023-02-11T00:44:40.697Z,79.40
2023-02-11T00:44:59.553Z,79.50
2023-02-11T00:45:08.940Z,79.50
2023-02-11T00:45:18.308Z,79.60
2023-02-11T00:45:27.690Z,79.60
2023-02-11T00:45:37.107Z,79.70
2023-02-11T00:45:46.640Z,79.80
2023-02-11T00:45:55.964Z,79.80
2023-02-11T00:46:05.361Z,79.90
2023-02-11T00:46:14.754Z,79.80
2023-02-11T00:46:24.213Z,80.00
2023-02-11T00:46:33.561Z,80.10
2023-02-11T00:46:42.968Z,80.00
2023-02-11T00:46:52.282Z,80.10
2023-02-11T00:47:01.677Z,80.10
2023-02-11T00:47:11.062Z,80.10
2023-02-11T00:47:29.859Z,80.20
2023-02-11T00:47:39.278Z,80.20
2023-02-11T00:47:48.664Z,80.20
2023-02-11T00:47:58.062Z,80.30
2023-02-11T00:48:07.469Z,80.30
2023-02-11T00:48:16.871Z,80.30
2023-02-11T00:48:26.261Z,80.30
2023-02-11T00:48:35.660Z,80.30
2023-02-11T00:48:45.062Z,80.40
2023-02-11T00:48:54.445Z,80.40
2023-02-11T00:49:03.850Z,80.50
2023-02-11T00:49:13.261Z,80.50
2023-02-11T00:49:22.685Z,80.50
2023-02-11T00:49:32.069Z,80.50
2023-02-11T00:49:41.470Z,80.50
2023-02-11T00:49:50.863Z,80.60
2023-02-11T00:50:09.710Z,80.50
2023-02-11T00:50:19.121Z,80.50
2023-02-11T00:50:28.540Z,80.50
2023-02-11T00:50:38.008Z,80.50
2023-02-11T00:50:48.436Z,80.60
2023-02-11T00:50:57.845Z,80.60
2023-02-11T00:51:07.291Z,80.70
2023-02-11T00:51:16.697Z,80.80
2023-02-11T00:51:26.083Z,80.80
2023-02-11T00:51:35.479Z,80.90
2023-02-11T00:51:44.878Z,80.90
2023-02-11T00:51:54.278Z,81.00
2023-02-11T00:52:03.658Z,81.00
2023-02-11T00:52:13.033Z,81.00
2023-02-11T00:52:22.417Z,81.10
2023-02-11T00:52:31.809Z,81.10
2023-02-11T00:52:41.209Z,81.10
2023-02-11T00:52:50.588Z,81.20
2023-02-11T00:53:09.390Z,81.20
2023-02-11T00:53:18.766Z,81.20
2023-02-11T00:53:28.159Z,81.20
2023-02-11T00:53:37.558Z,81.20
2023-02-11T00:53:47.022Z,81.10
2023-02-11T00:53:56.452Z,81.10
2023-02-11T00:54:05.851Z,81.10
2023-02-11T00:54:15.232Z,81.10
2023-02-11T00:54:24.632Z,81.20
2023-02-11T00:54:34.049Z,81.10
2023-02-11T00:54:43.434Z,81.10
2023-02-11T00:54:52.845Z,81.10
2023-02-11T00:55:02.216Z,81.10
2023-02-11T00:55:11.594Z,81.00
2023-02-11T00:55:20.974Z,81.00
2023-02-11T00:55:39.799Z,80.90
2023-02-11T00:55:49.617Z,80.90
2023-02-11T00:55:58.644Z,80.90
2023-02-11T00:56:08.066Z,80.90
2023-02-11T00:56:17.458Z,81.00
2023-02-11T00:56:26.866Z,80.90
2023-02-11T00:56:36.262Z,81.00
2023-02-11T00:56:45.651Z,81.00
2023-02-11T00:56:55.035Z,81.00
2023-02-11T00:57:04.439Z,81.10
2023-02-11T00:57:13.841Z,81.10
2023-02-11T00:57:23.237Z,81.10
2023-02-11T00:57:32.648Z,81.10
2023-02-11T00:57:42.049Z,81.10
2023-02-11T00:57:51.415Z,81.10
2023-02-11T00:58:00.832Z,81.20
2023-02-11T00:58:19.697Z,81.20
2023-02-11T00:58:29.103Z,81.20
2023-02-11T00:58:38.543Z,81.20
2023-02-11T00:58:47.907Z,81.20
2023-02-11T00:58:57.289Z,81.20
2023-02-11T00:59:06.676Z,81.20
2023-02-11T00:59:16.080Z,81.20
2023-02-11T00:59:25.497Z,81.30
2023-02-11T00:59:34.949Z,81.30
2023-02-11T00:59:44.353Z,81.30
2023-02-11T00:59:53.743Z,81.30
2023-02-11T01:00:03.144Z,81.40
2023-02-11T01:00:12.546Z,81.40
2023-02-11T01:00:21.938Z,81.40
2023-02-11T01:00:31.366Z,81.40
2023-02-11T01:00:40.759Z,81.40
2023-02-11T01:00:59.571Z,81.50
2023-02-11T01:01:09.003Z,81.50
2023-02-11T01:01:18.401Z,81.40
2023-02-11T01:01:27.816Z,81.50
2023-02-11T01:01:37.217Z,81.60
2023-02-11T01:01:46.604Z,81.60
2023-02-11T01:01:55.950Z,81.60
2023-02-11T01:02:05.369Z,81.60
2023-02-11T01:02:14.782Z,81.60
2023-02-11T01:02:24.176Z,81.60
2023-02-11T01:02:33.560Z,81.60
2023-02-11T01:02:42.963Z,81.70
2023-02-11T01:02:52.339Z,81.70
2023-02-11T01:03:01.741Z,81.70
2023-02-11T01:03:11.116Z,81.70
2023-02-11T01:03:20.576Z,81.80
2023-02-11T01:03:39.344Z,81.80
2023-02-11T01:03:48.740Z,81.80
2023-02-11T01:03:58.133Z,81.80
2023-02-11T01:04:07.524Z,81.80
2023-02-11T01:04:16.930Z,81.80
2023-02-11T01:04:26.320Z,81.80
2023-02-11T01:04:35.708Z,81.70
2023-02-11T01:04:45.161Z,81.70
2023-02-11T01:04:54.662Z,81.70
2023-02-11T01:05:04.017Z,81.70
2023-02-11T01:05:13.441Z,81.70
2023-02-11T01:05:22.823Z,81.70
2023-02-11T01:05:32.263Z,81.70
2023-02-11T01:05:41.671Z,81.60
2023-02-11T01:05:51.282Z,81.60
2023-02-11T01:06:09.770Z,81.60
2023-02-11T01:06:19.134Z,81.60
2023-02-11T01:06:28.525Z,81.60
2023-02-11T01:06:37.922Z,81.60
2023-02-11T01:06:47.314Z,81.60
2023-02-11T01:06:56.692Z,81.60
2023-02-11T01:07:06.097Z,81.60
2023-02-11T01:07:15.490Z,81.60
2023-02-11T01:07:24.869Z,81.60
2023-02-11T01:07:34.260Z,81.60
2023-02-11T01:07:43.641Z,81.60
2023-02-11T01:07:53.062Z,81.50
2023-02-11T01:08:02.443Z,81.50
2023-02-11T01:08:11.875Z,81.50
2023-02-11T01:08:21.287Z,81.50
2023-02-11T01:08:30.690Z,81.50
2023-02-11T01:08:49.481Z,81.40
2023-02-11T01:08:58.867Z,81.40
2023-02-11T01:09:08.258Z,81.40
2023-02-11T01:09:17.654Z,81.40
2023-02-11T01:09:27.035Z,81.40
2023-02-11T01:09:36.413Z,81.30
2023-02-11T01:09:45.966Z,81.30
2023-02-11T01:09:55.352Z,81.30
2023-02-11T01:10:04.718Z,81.20
2023-02-11T01:10:14.109Z,81.20
2023-02-11T01:10:23.517Z,81.20
2023-02-11T01:10:32.909Z,81.20
2023-02-11T01:10:42.326Z,81.20
2023-02-11T01:10:51.724Z,81.10
2023-02-11T01:11:01.139Z,81.00
2023-02-11T01:11:10.503Z,81.00
2023-02-11T01:11:29.328Z,81.10
2023-02-11T01:11:38.755Z,81.10
2023-02-11T01:11:48.194Z,81.10
2023-02-11T01:11:57.565Z,81.10
2023-02-11T01:12:06.962Z,81.10
2023-02-11T01:12:16.363Z,81.10
2023-02-11T01:12:25.753Z,81.10
2023-02-11T01:12:36.541Z,81.10
2023-02-11T01:12:44.546Z,81.10
2023-02-11T01:12:53.945Z,81.10
2023-02-11T01:13:03.342Z,81.10
2023-02-11T01:13:12.726Z,81.20
2023-02-11T01:13:22.114Z,81.20
2023-02-11T01:13:31.493Z,81.20
2023-02-11T01:13:40.895Z,81.20
2023-02-11T01:13:59.709Z,81.20
2023-02-11T01:14:09.085Z,81.10
2023-02-11T01:14:18.513Z,81.10
2023-02-11T01:14:27.924Z,81.10
2023-02-11T01:14:37.329Z,81.10
2023-02-11T01:14:46.724Z,81.10
2023-02-11T01:14:56.136Z,81.10
2023-02-11T01:15:05.560Z,81.10
2023-02-11T01:15:14.936Z,81.10
2023-02-11T01:15:24.329Z,81.10
2023-02-11T01:15:33.749Z,81.10
2023-02-11T01:15:43.195Z,81.10
2023-02-11T01:15:52.808Z,81.00
2023-02-11T01:16:02.000Z,81.10
2023-02-11T01:16:11.450Z,81.10
2023-02-11T01:16:20.831Z,81.00
2023-02-11T01:16:39.515Z,81.10
2023-02-11T01:16:48.911Z,81.10
2023-02-11T01:16:58.315Z,81.10
2023-02-11T01:17:07.716Z,81.00
2023-02-11T01:17:17.114Z,81.00
2023-02-11T01:17:26.527Z,81.00
2023-02-11T01:17:35.927Z,80.90
2023-02-11T01:17:45.324Z,80.90
2023-02-11T01:17:54.733Z,80.90
2023-02-11T01:18:04.127Z,80.80
2023-02-11T01:18:13.536Z,80.80
2023-02-11T01:18:22.922Z,80.80
2023-02-11T01:18:32.336Z,80.80
2023-02-11T01:18:41.735Z,80.80
2023-02-11T01:18:51.133Z,80.70
2023-02-11T01:19:00.534Z,80.70
2023-02-11T01:19:19.323Z,80.80
2023-02-11T01:19:28.715Z,80.80
2023-02-11T01:19:38.122Z,80.80
2023-02-11T01:19:47.546Z,80.80
2023-02-11T01:19:56.957Z,80.80
2023-02-11T01:20:06.391Z,80.80
2023-02-11T01:20:15.766Z,80.90
2023-02-11T01:20:25.176Z,80.80
2023-02-11T01:20:34.567Z,80.90
2023-02-11T01:20:43.964Z,80.90
2023-02-11T01:20:53.330Z,80.90
2023-02-11T01:21:02.721Z,80.90
2023-02-11T01:21:12.139Z,80.90
2023-02-11T01:21:21.522Z,80.90
2023-02-11T01:21:30.973Z,80.90
2023-02-11T01:21:49.751Z,80.90
2023-02-11T01:21:59.142Z,80.90
2023-02-11T01:22:08.537Z,80.90
2023-02-11T01:22:17.991Z,80.90
2023-02-11T01:22:27.376Z,80.90
2023-02-11T01:22:36.775Z,80.90
2023-02-11T01:22:46.167Z,80.90
2023-02-11T01:22:55.561Z,80.90
2023-02-11T01:23:04.958Z,81.00
2023-02-11T01:23:14.365Z,81.00
2023-02-11T01:23:23.770Z,81.10
2023-02-11T01:23:33.149Z,81.10
2023-02-11T01:23:42.540Z,81.20
2023-02-11T01:23:51.935Z,81.20
2023-02-11T01:24:01.330Z,81.30
2023-02-11T01:24:10.723Z,81.30
2023-02-11T01:24:29.598Z,81.50
2023-02-11T01:24:39.020Z,81.60
2023-02-11T01:24:48.428Z,81.70
2023-02-11T01:24:57.865Z,81.80
2023-02-11T01:25:07.283Z,81.80
2023-02-11T01:25:16.680Z,81.90
2023-02-11T01:25:26.054Z,82.00
2023-02-11T01:25:35.465Z,82.00
2023-02-11T01:25:44.851Z,82.10
2023-02-11T01:25:54.257Z,82.10
2023-02-11T01:26:03.629Z,82.10
2023-02-11T01:26:13.057Z,82.10
2023-02-11T01:26:22.471Z,82.10
2023-02-11T01:26:31.879Z,82.10
2023-02-11T01:26:41.348Z,82.20
2023-02-11T01:26:50.737Z,82.20
2023-02-11T01:27:09.517Z,82.20
2023-02-11T01:27:18.940Z,82.30
2023-02-11T01:27:28.320Z,82.40
2023-02-11T01:27:37.717Z,82.40
2023-02-11T01:27:47.091Z,82.40
2023-02-11T01:27:56.529Z,82.40
2023-02-11T01:28:05.919Z,82.40
2023-02-11T01:28:15.265Z,82.40
2023-02-11T01:28:24.783Z,82.40
2023-02-11T01:28:34.061Z,82.40
2023-02-11T01:28:43.389Z,82.50
2023-02-11T01:28:52.772Z,82.50
2023-02-11T01:29:02.152Z,82.50
2023-02-11T01:29:11.585Z,82.60
2023-02-11T01:29:20.996Z,82.60
2023-02-11T01:29:39.783Z,82.90
2023-02-11T01:29:49.157Z,82.90
2023-02-11T01:29:58.546Z,82.90
2023-02-11T01:30:07.939Z,83.10
2023-02-11T01:30:17.342Z,83.10
2023-02-11T01:30:26.756Z,83.20
2023-02-11T01:30:36.140Z,83.20
2023-02-11T01:30:45.563Z,83.20
2023-02-11T01:30:54.997Z,83.30
2023-02-11T01:31:04.425Z,83.40
2023-02-11T01:31:13.839Z,83.40
2023-02-11T01:31:23.212Z,83.30
2023-02-11T01:31:32.780Z,83.40
2023-02-11T01:31:41.971Z,83.30
2023-02-11T01:31:51.339Z,83.40
2023-02-11T01:32:00.735Z,83.40
2023-02-11T01:32:19.527Z,83.40
2023-02-11T01:32:28.916Z,83.30
2023-02-11T01:32:38.298Z,83.40
2023-02-11T01:32:47.727Z,83.40
2023-02-11T01:32:57.090Z,83.30
2023-02-11T01:33:06.480Z,83.30
2023-02-11T01:33:15.857Z,83.30
2023-02-11T01:33:25.231Z,83.30
2023-02-11T01:33:34.634Z,83.30
2023-02-11T01:33:44.026Z,83.30
2023-02-11T01:33:53.424Z,83.30
2023-02-11T01:34:02.817Z,83.30
2023-02-11T01:34:12.219Z,83.30
2023-02-11T01:34:21.584Z,83.30
2023-02-11T01:34:30.989Z,83.30
2023-02-11T01:34:49.762Z,83.40
2023-02-11T01:34:59.149Z,83.50
2023-02-11T01:35:08.573Z,83.50
2023-02-11T01:35:17.976Z,83.50
2023-02-11T01:35:27.351Z,83.50
2023-02-11T01:35:36.750Z,83.60
2023-02-11T01:35:46.132Z,83.60
2023-02-11T01:35:55.541Z,83.70
2023-02-11T01:36:04.936Z,83.70
2023-02-11T01:36:14.335Z,83.70
2023-02-11T01:36:23.750Z,83.70
2023-02-11T01:36:33.140Z,83.70
2023-02-11T01:36:42.554Z,83.60
2023-02-11T01:36:51.935Z,83.60
2023-02-11T01:37:01.337Z,83.60
2023-02-11T01:37:10.723Z,83.50
2023-02-11T01:37:22.968Z,83.50
2023-02-11T01:37:32.359Z,83.50
2023-02-11T01:37:41.748Z,83.50
2023-02-11T01:37:51.147Z,83.50
2023-02-11T01:38:00.538Z,83.50
2023-02-11T01:38:19.346Z,83.60
2023-02-11T01:38:28.796Z,83.60
2023-02-11T01:38:38.176Z,83.60
2023-02-11T01:38:47.544Z,83.60
2023-02-11T01:38:56.955Z,83.60
2023-02-11T01:39:06.326Z,83.60
2023-02-11T01:39:15.730Z,83.60
2023-02-11T01:39:25.118Z,83.50
2023-02-11T01:39:34.530Z,83.50
2023-02-11T01:39:43.937Z,83.50
2023-02-11T01:39:53.337Z,83.50
2023-02-11T01:40:02.768Z,83.50
2023-02-11T01:40:12.109Z,83.50
2023-02-11T01:40:21.487Z,83.50
2023-02-11T01:40:30.918Z,83.40
2023-02-11T01:40:49.719Z,83.40
2023-02-11T01:40:59.130Z,83.40
2023-02-11T01:41:08.521Z,83.50
2023-02-11T01:41:17.941Z,83.50
2023-02-11T01:41:27.342Z,83.50
2023-02-11T01:41:36.716Z,83.50
2023-02-11T01:41:46.112Z,83.50
2023-02-11T01:41:55.483Z,83.50
2023-02-11T01:42:04.859Z,83.50
2023-02-11T01:42:14.242Z,83.50
2023-02-11T01:42:23.637Z,83.50
2023-02-11T01:42:33.025Z,83.50
2023-02-11T01:42:42.406Z,83.30
2023-02-11T01:42:51.804Z,83.30
2023-02-11T01:43:01.218Z,83.20
2023-02-11T01:43:10.709Z,83.20
2023-02-11T01:43:29.501Z,83.20
2023-02-11T01:43:38.905Z,83.20
2023-02-11T01:43:48.294Z,83.10
2023-02-11T01:43:57.706Z,83.10
2023-02-11T01:44:07.082Z,83.10
2023-02-11T01:44:16.472Z,83.10
2023-02-11T01:44:25.858Z,83.10
2023-02-11T01:44:35.251Z,83.10
2023-02-11T01:44:44.718Z,83.20
2023-02-11T01:44:54.115Z,83.20
2023-02-11T01:45:03.543Z,83.20
2023-02-11T01:45:12.958Z,83.20
2023-02-11T01:45:22.356Z,83.30
2023-02-11T01:45:31.752Z,83.30
2023-02-11T01:45:41.146Z,83.30
2023-02-11T01:45:50.936Z,83.30
2023-02-11T01:46:09.355Z,83.30
2023-02-11T01:46:18.821Z,83.40
2023-02-11T01:46:28.212Z,83.30
2023-02-11T01:46:37.675Z,83.30
2023-02-11T01:46:46.978Z,83.40
2023-02-11T01:46:56.322Z,83.30
2023-02-11T01:47:05.763Z,83.30
2023-02-11T01:47:15.154Z,83.40
2023-02-11T01:47:24.591Z,83.40
2023-02-11T01:47:33.967Z,83.40
2023-02-11T01:47:43.377Z,83.40
2023-02-11T01:47:52.762Z,83.40
2023-02-11T01:48:02.118Z,83.40
2023-02-11T01:48:11.517Z,83.40
2023-02-11T01:48:20.916Z,83.50
2023-02-11T01:48:39.697Z,83.50
2023-02-11T01:48:49.161Z,83.50
2023-02-11T01:48:58.571Z,83.50
2023-02-11T01:49:07.898Z,83.40
2023-02-11T01:49:17.334Z,83.50
2023-02-11T01:49:26.789Z,83.50
2023-02-11T01:49:36.178Z,83.50
2023-02-11T01:49:45.477Z,83.50
2023-02-11T01:49:54.881Z,83.50
2023-02-11T01:50:04.277Z,83.50
2023-02-11T01:50:13.681Z,83.50
2023-02-11T01:50:23.077Z,83.60
2023-02-11T01:50:32.467Z,83.70
2023-02-11T01:50:41.866Z,83.70
2023-02-11T01:50:51.264Z,83.70
2023-02-11T01:51:00.685Z,83.80
2023-02-11T01:51:19.480Z,83.70
2023-02-11T01:51:28.873Z,83.80
2023-02-11T01:51:38.302Z,83.90
2023-02-11T01:51:47.710Z,83.90
2023-02-11T01:51:57.101Z,83.70
2023-02-11T01:52:06.504Z,83.90
2023-02-11T01:52:15.899Z,84.00
2023-02-11T01:52:25.268Z,83.90
2023-02-11T01:52:34.679Z,83.90
2023-02-11T01:52:44.062Z,83.80
2023-02-11T01:52:53.451Z,83.90
2023-02-11T01:53:02.882Z,83.90
2023-02-11T01:53:12.264Z,83.90
2023-02-11T01:53:21.707Z,83.90
2023-02-11T01:53:31.129Z,83.90
2023-02-11T01:53:40.536Z,83.90
2023-02-11T01:53:59.327Z,83.90
2023-02-11T01:54:08.726Z,84.00
2023-02-11T01:54:18.492Z,83.90
2023-02-11T01:54:27.899Z,84.00
2023-02-11T01:54:37.275Z,84.00
2023-02-11T01:54:46.672Z,84.00
2023-02-11T01:54:56.033Z,84.00
2023-02-11T01:55:05.423Z,84.10
2023-02-11T01:55:14.791Z,84.10
2023-02-11T01:55:24.217Z,84.00
2023-02-11T01:55:33.556Z,84.00
2023-02-11T01:55:42.956Z,84.00
2023-02-11T01:55:52.350Z,84.00
2023-02-11T01:56:01.743Z,84.00
2023-02-11T01:56:11.123Z,84.00
2023-02-11T01:56:20.554Z,84.00
2023-02-11T01:56:39.337Z,84.00
2023-02-11T01:56:48.715Z,84.00
2023-02-11T01:56:58.101Z,84.00
2023-02-11T01:57:07.481Z,84.00
2023-02-11T01:57:16.879Z,84.00
2023-02-11T01:57:26.299Z,83.90
2023-02-11T01:57:35.663Z,84.00
2023-02-11T01:57:45.062Z,84.00
2023-02-11T01:57:54.448Z,84.00
2023-02-11T01:58:03.861Z,83.90
2023-02-11T01:58:13.272Z,83.90
2023-02-11T01:58:22.673Z,83.90
2023-02-11T01:58:32.065Z,83.90
2023-02-11T01:58:41.466Z,83.90
2023-02-11T01:58:50.860Z,83.90
2023-02-11T01:59:09.693Z,83.80
2023-02-11T01:59:19.087Z,83.90
2023-02-11T01:59:28.487Z,83.90
2023-02-11T01:59:38.012Z,83.90
2023-02-11T01:59:47.384Z,83.90
2023-02-11T01:59:56.847Z,83.90
2023-02-11T02:00:06.250Z,83.80
2023-02-11T02:00:15.691Z,83.90
2023-02-11T02:00:25.086Z,83.90
2023-02-11T02:00:34.481Z,84.00
2023-02-11T02:00:43.866Z,84.00
2023-02-11T02:00:53.265Z,84.10
2023-02-11T02:01:02.664Z,84.10
2023-02-11T02:01:12.054Z,84.10
2023-02-11T02:01:21.496Z,84.30
2023-02-11T02:01:30.881Z,84.30
2023-02-11T02:01:49.697Z,84.40
2023-02-11T02:01:59.078Z,84.30
2023-02-11T02:02:08.463Z,84.50
2023-02-11T02:02:17.828Z,84.50
2023-02-11T02:02:27.277Z,84.60
2023-02-11T02:02:36.590Z,84.50
2023-02-11T02:02:45.989Z,84.60
2023-02-11T02:02:55.369Z,84.60
2023-02-11T02:03:04.753Z,84.60
2023-02-11T02:03:14.230Z,84.60
2023-02-11T02:03:23.519Z,84.60
2023-02-11T02:03:32.914Z,84.60
2023-02-11T02:03:42.344Z,84.60
2023-02-11T02:03:51.700Z,84.50
2023-02-11T02:04:01.169Z,84.50
2023-02-11T02:04:19.867Z,84.50
2023-02-11T02:04:29.236Z,84.50
2023-02-11T02:04:38.620Z,84.50
2023-02-11T02:04:48.024Z,84.50
2023-02-11T02:04:57.427Z,84.50
2023-02-11T02:05:06.807Z,84.50
2023-02-11T02:05:16.221Z,84.50
2023-02-11T02:05:25.675Z,84.50
2023-02-11T02:05:35.075Z,84.60
2023-02-11T02:05:44.488Z,84.60
2023-02-11T02:05:53.944Z,84.60
2023-02-11T02:06:03.359Z,84.70
2023-02-11T02:06:12.747Z,84.70
2023-02-11T02:06:22.165Z,84.60
2023-02-11T02:06:31.553Z,84.60
2023-02-11T02:06:40.933Z,84.70
2023-02-11T02:06:59.716Z,84.80
2023-02-11T02:07:09.204Z,84.80
2023-02-11T02:07:18.590Z,84.90
2023-02-11T02:07:28.035Z,85.00
2023-02-11T02:07:37.440Z,85.00
2023-02-11T02:07:46.886Z,85.00
2023-02-11T02:07:58.513Z,85.10
2023-02-11T02:08:06.374Z,85.00
2023-02-11T02:08:15.765Z,85.10
2023-02-11T02:08:25.144Z,85.10
2023-02-11T02:08:34.592Z,85.10
2023-02-11T02:08:43.989Z,85.10